sensor_id;sensor_type;location;lat;lon;timestamp;P1;durP1;ratioP1;P2;durP2;ratioP2
69246;SDS011;56358;56.328;43.992;2023-02-28T00:00:22;12.70;;;4.78;;
69246;SDS011;56358;56.328;43.992;2023-02-28T00:02:24;9.13;;;4.30;;
69246;SDS011;56358;56.328;43.992;2023-02-28T00:04:24;14.93;;;4.15;;
69246;SDS011;56358;56.328;43.992;2023-02-28T00:06:25;9.38;;;3.85;;
69246;SDS011;56358;56.328;43.992;2023-02-28T00:08:26;8.75;;;3.60;;
69246;SDS011;56358;56.328;43.992;2023-02-28T00:10:28;7.68;;;3.25;;
69246;SDS011;56358;56.328;43.992;2023-02-28T00:12:30;8.80;;;3.50;;
69246;SDS011;56358;56.328;43.992;2023-02-28T00:14:30;8.43;;;3.70;;
69246;SDS011;56358;56.328;43.992;2023-02-28T00:16:31;12.57;;;4.07;;
69246;SDS011;56358;56.328;43.992;2023-02-28T00:18:32;12.52;;;3.70;;
69246;SDS011;56358;56.328;43.992;2023-02-28T00:20:33;6.10;;;2.80;;
69246;SDS011;56358;56.328;43.992;2023-02-28T00:22:34;7.57;;;3.00;;
69246;SDS011;56358;56.328;43.992;2023-02-28T00:24:35;8.93;;;3.88;;
69246;SDS011;56358;56.328;43.992;2023-02-28T00:26:35;7.97;;;4.22;;
69246;SDS011;56358;56.328;43.992;2023-02-28T00:28:36;10.05;;;3.92;;
69246;SDS011;56358;56.328;43.992;2023-02-28T00:30:38;5.37;;;2.57;;
69246;SDS011;56358;56.328;43.992;2023-02-28T00:32:39;11.95;;;3.70;;
69246;SDS011;56358;56.328;43.992;2023-02-28T00:34:40;10.07;;;3.63;;
69246;SDS011;56358;56.328;43.992;2023-02-28T00:36:40;6.70;;;3.00;;
69246;SDS011;56358;56.328;43.992;2023-02-28T00:38:45;8.80;;;3.95;;
69246;SDS011;56358;56.328;43.992;2023-02-28T00:40:46;8.93;;;3.42;;
69246;SDS011;56358;56.328;43.992;2023-02-28T00:42:46;7.60;;;3.72;;
69246;SDS011;56358;56.328;43.992;2023-02-28T00:44:47;5.85;;;2.90;;
69246;SDS011;56358;56.328;43.992;2023-02-28T00:46:48;8.20;;;3.60;;
69246;SDS011;56358;56.328;43.992;2023-02-28T00:48:49;3.92;;;2.28;;
69246;SDS011;56358;56.328;43.992;2023-02-28T00:50:49;8.43;;;3.60;;
69246;SDS011;56358;56.328;43.992;2023-02-28T00:52:50;7.22;;;3.35;;
69246;SDS011;56358;56.328;43.992;2023-02-28T00:54:51;8.73;;;3.15;;
69246;SDS011;56358;56.328;43.992;2023-02-28T00:56:51;8.07;;;3.50;;
69246;SDS011;56358;56.328;43.992;2023-02-28T00:58:52;9.95;;;3.90;;
69246;SDS011;56358;56.328;43.992;2023-02-28T01:00:53;9.88;;;3.72;;
69246;SDS011;56358;56.328;43.992;2023-02-28T01:02:54;6.97;;;3.63;;
69246;SDS011;56358;56.328;43.992;2023-02-28T01:04:55;8.95;;;4.03;;
69246;SDS011;56358;56.328;43.992;2023-02-28T01:06:57;8.35;;;3.45;;
69246;SDS011;56358;56.328;43.992;2023-02-28T01:08:58;9.30;;;3.58;;
69246;SDS011;56358;56.328;43.992;2023-02-28T01:11:06;6.75;;;2.85;;
69246;SDS011;56358;56.328;43.992;2023-02-28T01:13:08;6.53;;;3.13;;
69246;SDS011;56358;56.328;43.992;2023-02-28T01:15:10;8.85;;;3.60;;
69246;SDS011;56358;56.328;43.992;2023-02-28T01:17:11;11.77;;;4.32;;
69246;SDS011;56358;56.328;43.992;2023-02-28T01:19:14;14.35;;;5.15;;
69246;SDS011;56358;56.328;43.992;2023-02-28T01:21:16;11.23;;;4.68;;
69246;SDS011;56358;56.328;43.992;2023-02-28T01:23:20;12.20;;;4.90;;
69246;SDS011;56358;56.328;43.992;2023-02-28T01:25:23;9.23;;;4.78;;
69246;SDS011;56358;56.328;43.992;2023-02-28T01:27:24;12.27;;;5.63;;
69246;SDS011;56358;56.328;43.992;2023-02-28T01:29:25;17.38;;;5.22;;
69246;SDS011;56358;56.328;43.992;2023-02-28T01:31:26;12.38;;;4.82;;
69246;SDS011;56358;56.328;43.992;2023-02-28T01:33:27;11.70;;;4.40;;
69246;SDS011;56358;56.328;43.992;2023-02-28T01:35:28;8.45;;;3.90;;
69246;SDS011;56358;56.328;43.992;2023-02-28T01:37:32;8.82;;;3.90;;
69246;SDS011;56358;56.328;43.992;2023-02-28T01:39:33;9.50;;;4.05;;
69246;SDS011;56358;56.328;43.992;2023-02-28T01:41:34;7.72;;;3.88;;
69246;SDS011;56358;56.328;43.992;2023-02-28T01:45:44;10.98;;;3.92;;
69246;SDS011;56358;56.328;43.992;2023-02-28T01:47:45;8.90;;;4.10;;
69246;SDS011;56358;56.328;43.992;2023-02-28T01:49:48;5.82;;;3.60;;
69246;SDS011;56358;56.328;43.992;2023-02-28T01:51:52;8.65;;;3.70;;
69246;SDS011;56358;56.328;43.992;2023-02-28T01:54:01;9.38;;;3.67;;
69246;SDS011;56358;56.328;43.992;2023-02-28T01:56:06;9.35;;;3.22;;
69246;SDS011;56358;56.328;43.992;2023-02-28T01:58:09;11.07;;;3.88;;
69246;SDS011;56358;56.328;43.992;2023-02-28T02:00:10;9.60;;;3.88;;
69246;SDS011;56358;56.328;43.992;2023-02-28T02:02:16;12.95;;;4.18;;
69246;SDS011;56358;56.328;43.992;2023-02-28T02:04:19;11.07;;;4.00;;
69246;SDS011;56358;56.328;43.992;2023-02-28T02:06:22;7.82;;;2.63;;
69246;SDS011;56358;56.328;43.992;2023-02-28T02:08:25;9.75;;;4.40;;
69246;SDS011;56358;56.328;43.992;2023-02-28T02:10:48;7.68;;;3.75;;
69246;SDS011;56358;56.328;43.992;2023-02-28T02:15:30;7.63;;;3.10;;
69246;SDS011;56358;56.328;43.992;2023-02-28T02:17:52;7.65;;;3.75;;
69246;SDS011;56358;56.328;43.992;2023-02-28T02:36:33;4.25;;;2.17;;
69246;SDS011;56358;56.328;43.992;2023-02-28T02:43:45;6.30;;;2.60;;
69246;SDS011;56358;56.328;43.992;2023-02-28T02:45:55;6.30;;;2.65;;
69246;SDS011;56358;56.328;43.992;2023-02-28T02:48:00;7.90;;;3.20;;
69246;SDS011;56358;56.328;43.992;2023-02-28T02:56:42;6.22;;;2.30;;
69246;SDS011;56358;56.328;43.992;2023-02-28T02:58:47;6.18;;;2.92;;
69246;SDS011;56358;56.328;43.992;2023-02-28T03:00:52;5.40;;;2.17;;
69246;SDS011;56358;56.328;43.992;2023-02-28T03:02:56;6.68;;;2.75;;
69246;SDS011;56358;56.328;43.992;2023-02-28T03:04:58;5.18;;;2.28;;
69246;SDS011;56358;56.328;43.992;2023-02-28T03:07:03;5.70;;;2.30;;
69246;SDS011;56358;56.328;43.992;2023-02-28T03:09:04;5.25;;;2.42;;
69246;SDS011;56358;56.328;43.992;2023-02-28T03:11:06;6.18;;;2.78;;
69246;SDS011;56358;56.328;43.992;2023-02-28T03:15:23;5.70;;;2.00;;
69246;SDS011;56358;56.328;43.992;2023-02-28T03:18:15;7.15;;;2.45;;
69246;SDS011;56358;56.328;43.992;2023-02-28T03:20:21;7.00;;;3.00;;
69246;SDS011;56358;56.328;43.992;2023-02-28T03:27:32;3.75;;;1.80;;
69246;SDS011;56358;56.328;43.992;2023-02-28T03:29:58;3.15;;;1.95;;
69246;SDS011;56358;56.328;43.992;2023-02-28T03:32:08;4.20;;;2.22;;
69246;SDS011;56358;56.328;43.992;2023-02-28T03:34:26;6.78;;;2.95;;
69246;SDS011;56358;56.328;43.992;2023-02-28T03:36:39;8.48;;;2.85;;
69246;SDS011;56358;56.328;43.992;2023-02-28T03:38:45;5.60;;;2.50;;
69246;SDS011;56358;56.328;43.992;2023-02-28T03:41:05;6.78;;;2.65;;
69246;SDS011;56358;56.328;43.992;2023-02-28T03:43:15;7.63;;;3.03;;
69246;SDS011;56358;56.328;43.992;2023-02-28T03:45:25;6.50;;;2.50;;
69246;SDS011;56358;56.328;43.992;2023-02-28T03:47:32;8.63;;;2.55;;
69246;SDS011;56358;56.328;43.992;2023-02-28T03:49:38;9.18;;;2.50;;
69246;SDS011;56358;56.328;43.992;2023-02-28T03:51:45;4.80;;;2.25;;
69246;SDS011;56358;56.328;43.992;2023-02-28T03:53:53;6.88;;;2.55;;
69246;SDS011;56358;56.328;43.992;2023-02-28T03:55:59;4.95;;;2.35;;
69246;SDS011;56358;56.328;43.992;2023-02-28T04:03:07;5.15;;;2.67;;
69246;SDS011;56358;56.328;43.992;2023-02-28T04:05:08;8.70;;;2.05;;
69246;SDS011;56358;56.328;43.992;2023-02-28T04:07:09;5.07;;;1.90;;
69246;SDS011;56358;56.328;43.992;2023-02-28T04:09:13;6.35;;;2.22;;
69246;SDS011;56358;56.328;43.992;2023-02-28T04:13:30;6.45;;;2.55;;
69246;SDS011;56358;56.328;43.992;2023-02-28T04:15:30;7.32;;;2.75;;
69246;SDS011;56358;56.328;43.992;2023-02-28T04:17:32;7.18;;;2.38;;
69246;SDS011;56358;56.328;43.992;2023-02-28T04:19:32;8.05;;;2.72;;
69246;SDS011;56358;56.328;43.992;2023-02-28T04:21:34;5.20;;;2.20;;
69246;SDS011;56358;56.328;43.992;2023-02-28T04:23:36;6.00;;;2.10;;
69246;SDS011;56358;56.328;43.992;2023-02-28T04:25:37;5.38;;;2.42;;
69246;SDS011;56358;56.328;43.992;2023-02-28T04:29:40;4.75;;;2.38;;
69246;SDS011;56358;56.328;43.992;2023-02-28T04:31:44;5.10;;;2.30;;
69246;SDS011;56358;56.328;43.992;2023-02-28T04:33:45;4.70;;;2.17;;
69246;SDS011;56358;56.328;43.992;2023-02-28T04:35:45;7.03;;;2.75;;
69246;SDS011;56358;56.328;43.992;2023-02-28T04:37:46;4.65;;;2.22;;
69246;SDS011;56358;56.328;43.992;2023-02-28T04:39:47;5.57;;;2.05;;
69246;SDS011;56358;56.328;43.992;2023-02-28T04:41:48;4.53;;;1.95;;
69246;SDS011;56358;56.328;43.992;2023-02-28T04:43:49;5.10;;;2.05;;
69246;SDS011;56358;56.328;43.992;2023-02-28T04:45:51;5.40;;;2.00;;
69246;SDS011;56358;56.328;43.992;2023-02-28T04:47:52;4.80;;;2.30;;
69246;SDS011;56358;56.328;43.992;2023-02-28T04:49:53;3.63;;;1.95;;
69246;SDS011;56358;56.328;43.992;2023-02-28T04:51:55;3.92;;;1.67;;
69246;SDS011;56358;56.328;43.992;2023-02-28T04:53:55;4.78;;;2.08;;
69246;SDS011;56358;56.328;43.992;2023-02-28T04:55:56;5.63;;;2.80;;
69246;SDS011;56358;56.328;43.992;2023-02-28T04:57:57;5.68;;;2.22;;
69246;SDS011;56358;56.328;43.992;2023-02-28T04:59:58;6.72;;;2.42;;
69246;SDS011;56358;56.328;43.992;2023-02-28T05:01:59;4.47;;;1.50;;
69246;SDS011;56358;56.328;43.992;2023-02-28T05:04:00;5.18;;;2.47;;
69246;SDS011;56358;56.328;43.992;2023-02-28T05:06:02;7.10;;;2.35;;
69246;SDS011;56358;56.328;43.992;2023-02-28T05:08:03;4.60;;;2.17;;
69246;SDS011;56358;56.328;43.992;2023-02-28T05:10:05;3.40;;;2.10;;
69246;SDS011;56358;56.328;43.992;2023-02-28T05:12:06;7.57;;;2.15;;
69246;SDS011;56358;56.328;43.992;2023-02-28T05:14:11;4.07;;;2.03;;
69246;SDS011;56358;56.328;43.992;2023-02-28T05:16:14;6.20;;;2.10;;
69246;SDS011;56358;56.328;43.992;2023-02-28T05:18:15;5.72;;;2.08;;
69246;SDS011;56358;56.328;43.992;2023-02-28T05:20:16;6.75;;;2.03;;
69246;SDS011;56358;56.328;43.992;2023-02-28T05:22:17;6.57;;;1.95;;
69246;SDS011;56358;56.328;43.992;2023-02-28T05:24:18;5.50;;;2.67;;
69246;SDS011;56358;56.328;43.992;2023-02-28T05:26:23;6.07;;;2.53;;
69246;SDS011;56358;56.328;43.992;2023-02-28T05:28:24;4.00;;;2.13;;
69246;SDS011;56358;56.328;43.992;2023-02-28T05:30:24;4.60;;;1.75;;
69246;SDS011;56358;56.328;43.992;2023-02-28T05:32:25;4.32;;;1.95;;
69246;SDS011;56358;56.328;43.992;2023-02-28T05:34:26;6.55;;;2.75;;
69246;SDS011;56358;56.328;43.992;2023-02-28T05:36:26;4.25;;;2.08;;
69246;SDS011;56358;56.328;43.992;2023-02-28T05:38:27;6.07;;;2.53;;
69246;SDS011;56358;56.328;43.992;2023-02-28T05:40:28;6.72;;;2.30;;
69246;SDS011;56358;56.328;43.992;2023-02-28T05:42:28;5.35;;;2.53;;
69246;SDS011;56358;56.328;43.992;2023-02-28T05:44:29;3.92;;;2.00;;
69246;SDS011;56358;56.328;43.992;2023-02-28T05:46:30;5.78;;;2.10;;
69246;SDS011;56358;56.328;43.992;2023-02-28T05:48:32;5.95;;;2.28;;
69246;SDS011;56358;56.328;43.992;2023-02-28T05:50:33;5.55;;;1.65;;
69246;SDS011;56358;56.328;43.992;2023-02-28T05:52:34;4.40;;;2.65;;
69246;SDS011;56358;56.328;43.992;2023-02-28T05:54:35;6.25;;;2.80;;
69246;SDS011;56358;56.328;43.992;2023-02-28T05:56:35;5.03;;;2.50;;
69246;SDS011;56358;56.328;43.992;2023-02-28T05:58:39;3.28;;;1.98;;
69246;SDS011;56358;56.328;43.992;2023-02-28T06:00:39;7.25;;;2.33;;
69246;SDS011;56358;56.328;43.992;2023-02-28T06:02:40;5.53;;;2.45;;
69246;SDS011;56358;56.328;43.992;2023-02-28T06:04:41;6.15;;;2.45;;
69246;SDS011;56358;56.328;43.992;2023-02-28T06:06:42;7.60;;;2.90;;
69246;SDS011;56358;56.328;43.992;2023-02-28T06:08:43;3.35;;;2.08;;
69246;SDS011;56358;56.328;43.992;2023-02-28T06:10:45;4.60;;;2.40;;
69246;SDS011;56358;56.328;43.992;2023-02-28T06:12:46;6.72;;;2.38;;
69246;SDS011;56358;56.328;43.992;2023-02-28T06:14:47;5.55;;;2.95;;
69246;SDS011;56358;56.328;43.992;2023-02-28T06:16:47;6.97;;;3.03;;
69246;SDS011;56358;56.328;43.992;2023-02-28T06:18:48;7.95;;;3.00;;
69246;SDS011;56358;56.328;43.992;2023-02-28T06:20:52;8.13;;;3.08;;
69246;SDS011;56358;56.328;43.992;2023-02-28T06:22:57;5.93;;;2.65;;
69246;SDS011;56358;56.328;43.992;2023-02-28T06:24:59;8.65;;;2.78;;
69246;SDS011;56358;56.328;43.992;2023-02-28T06:26:59;5.45;;;2.38;;
69246;SDS011;56358;56.328;43.992;2023-02-28T06:29:05;4.95;;;2.50;;
69246;SDS011;56358;56.328;43.992;2023-02-28T06:31:14;6.93;;;3.05;;
69246;SDS011;56358;56.328;43.992;2023-02-28T06:33:16;6.72;;;2.47;;
69246;SDS011;56358;56.328;43.992;2023-02-28T06:35:17;3.75;;;2.05;;
69246;SDS011;56358;56.328;43.992;2023-02-28T06:37:18;5.93;;;1.98;;
69246;SDS011;56358;56.328;43.992;2023-02-28T06:39:19;6.38;;;2.50;;
69246;SDS011;56358;56.328;43.992;2023-02-28T06:41:21;7.88;;;3.20;;
69246;SDS011;56358;56.328;43.992;2023-02-28T06:43:23;4.47;;;2.40;;
69246;SDS011;56358;56.328;43.992;2023-02-28T06:45:24;3.75;;;2.03;;
69246;SDS011;56358;56.328;43.992;2023-02-28T06:47:26;4.13;;;1.60;;
69246;SDS011;56358;56.328;43.992;2023-02-28T06:49:27;7.45;;;2.88;;
69246;SDS011;56358;56.328;43.992;2023-02-28T06:51:27;5.32;;;2.92;;
69246;SDS011;56358;56.328;43.992;2023-02-28T06:53:28;5.43;;;2.38;;
69246;SDS011;56358;56.328;43.992;2023-02-28T06:55:29;10.48;;;3.20;;
69246;SDS011;56358;56.328;43.992;2023-02-28T06:57:30;3.83;;;1.98;;
69246;SDS011;56358;56.328;43.992;2023-02-28T06:59:32;7.80;;;3.65;;
69246;SDS011;56358;56.328;43.992;2023-02-28T07:01:35;7.95;;;3.28;;
69246;SDS011;56358;56.328;43.992;2023-02-28T07:03:36;9.25;;;3.28;;
69246;SDS011;56358;56.328;43.992;2023-02-28T07:05:37;7.22;;;2.97;;
69246;SDS011;56358;56.328;43.992;2023-02-28T07:07:39;6.75;;;3.47;;
69246;SDS011;56358;56.328;43.992;2023-02-28T07:09:43;6.63;;;3.05;;
69246;SDS011;56358;56.328;43.992;2023-02-28T07:11:44;7.03;;;3.40;;
69246;SDS011;56358;56.328;43.992;2023-02-28T07:13:45;9.10;;;2.88;;
69246;SDS011;56358;56.328;43.992;2023-02-28T07:16:00;8.20;;;3.92;;
69246;SDS011;56358;56.328;43.992;2023-02-28T07:18:03;7.40;;;3.50;;
69246;SDS011;56358;56.328;43.992;2023-02-28T07:20:04;5.97;;;2.72;;
69246;SDS011;56358;56.328;43.992;2023-02-28T07:22:06;5.55;;;2.47;;
69246;SDS011;56358;56.328;43.992;2023-02-28T07:24:07;7.18;;;3.05;;
69246;SDS011;56358;56.328;43.992;2023-02-28T07:26:12;5.25;;;2.35;;
69246;SDS011;56358;56.328;43.992;2023-02-28T07:28:15;7.78;;;3.47;;
69246;SDS011;56358;56.328;43.992;2023-02-28T07:30:16;7.60;;;3.30;;
69246;SDS011;56358;56.328;43.992;2023-02-28T07:32:17;9.45;;;3.38;;
69246;SDS011;56358;56.328;43.992;2023-02-28T07:34:19;5.53;;;2.53;;
69246;SDS011;56358;56.328;43.992;2023-02-28T07:36:20;6.68;;;3.03;;
69246;SDS011;56358;56.328;43.992;2023-02-28T07:38:21;4.90;;;2.78;;
69246;SDS011;56358;56.328;43.992;2023-02-28T07:40:21;7.60;;;3.30;;
69246;SDS011;56358;56.328;43.992;2023-02-28T07:42:22;6.13;;;2.50;;
69246;SDS011;56358;56.328;43.992;2023-02-28T07:44:23;6.10;;;3.40;;
69246;SDS011;56358;56.328;43.992;2023-02-28T07:46:23;8.98;;;3.50;;
69246;SDS011;56358;56.328;43.992;2023-02-28T07:48:24;9.07;;;2.95;;
69246;SDS011;56358;56.328;43.992;2023-02-28T07:50:25;6.55;;;3.10;;
69246;SDS011;56358;56.328;43.992;2023-02-28T07:52:30;5.45;;;2.60;;
69246;SDS011;56358;56.328;43.992;2023-02-28T07:54:32;6.72;;;2.60;;
69246;SDS011;56358;56.328;43.992;2023-02-28T07:56:33;5.47;;;2.85;;
69246;SDS011;56358;56.328;43.992;2023-02-28T07:58:34;6.72;;;2.67;;
69246;SDS011;56358;56.328;43.992;2023-02-28T08:00:35;7.40;;;3.20;;
69246;SDS011;56358;56.328;43.992;2023-02-28T08:02:36;7.55;;;3.00;;
69246;SDS011;56358;56.328;43.992;2023-02-28T08:04:37;4.57;;;2.50;;
69246;SDS011;56358;56.328;43.992;2023-02-28T08:06:37;6.57;;;2.88;;
69246;SDS011;56358;56.328;43.992;2023-02-28T08:08:38;9.02;;;2.97;;
69246;SDS011;56358;56.328;43.992;2023-02-28T08:10:39;6.60;;;3.53;;
69246;SDS011;56358;56.328;43.992;2023-02-28T08:12:39;8.88;;;3.15;;
69246;SDS011;56358;56.328;43.992;2023-02-28T08:14:40;6.00;;;2.47;;
69246;SDS011;56358;56.328;43.992;2023-02-28T08:16:41;5.95;;;2.83;;
69246;SDS011;56358;56.328;43.992;2023-02-28T08:18:43;5.85;;;2.75;;
69246;SDS011;56358;56.328;43.992;2023-02-28T08:20:44;4.82;;;2.60;;
69246;SDS011;56358;56.328;43.992;2023-02-28T08:22:44;10.23;;;3.63;;
69246;SDS011;56358;56.328;43.992;2023-02-28T08:24:45;7.20;;;3.38;;
69246;SDS011;56358;56.328;43.992;2023-02-28T08:26:46;8.55;;;3.17;;
69246;SDS011;56358;56.328;43.992;2023-02-28T08:28:46;7.22;;;3.28;;
69246;SDS011;56358;56.328;43.992;2023-02-28T08:30:47;9.00;;;3.53;;
69246;SDS011;56358;56.328;43.992;2023-02-28T08:32:49;10.80;;;3.60;;
69246;SDS011;56358;56.328;43.992;2023-02-28T08:34:49;8.05;;;3.30;;
69246;SDS011;56358;56.328;43.992;2023-02-28T08:36:50;6.60;;;2.90;;
69246;SDS011;56358;56.328;43.992;2023-02-28T08:38:51;9.63;;;3.80;;
69246;SDS011;56358;56.328;43.992;2023-02-28T08:41:05;8.90;;;3.15;;
69246;SDS011;56358;56.328;43.992;2023-02-28T08:43:07;5.93;;;2.67;;
69246;SDS011;56358;56.328;43.992;2023-02-28T08:45:08;5.15;;;2.90;;
69246;SDS011;56358;56.328;43.992;2023-02-28T08:47:09;7.72;;;2.97;;
69246;SDS011;56358;56.328;43.992;2023-02-28T08:49:09;10.35;;;4.97;;
69246;SDS011;56358;56.328;43.992;2023-02-28T08:51:11;6.80;;;2.80;;
69246;SDS011;56358;56.328;43.992;2023-02-28T08:53:17;11.88;;;3.78;;
69246;SDS011;56358;56.328;43.992;2023-02-28T08:55:18;9.98;;;3.72;;
69246;SDS011;56358;56.328;43.992;2023-02-28T08:57:18;8.68;;;3.75;;
69246;SDS011;56358;56.328;43.992;2023-02-28T08:59:19;8.52;;;3.67;;
69246;SDS011;56358;56.328;43.992;2023-02-28T09:01:21;10.07;;;3.75;;
69246;SDS011;56358;56.328;43.992;2023-02-28T09:03:23;6.28;;;3.03;;
69246;SDS011;56358;56.328;43.992;2023-02-28T09:05:24;6.35;;;3.13;;
69246;SDS011;56358;56.328;43.992;2023-02-28T09:07:25;10.75;;;3.90;;
69246;SDS011;56358;56.328;43.992;2023-02-28T09:09:26;8.93;;;4.03;;
69246;SDS011;56358;56.328;43.992;2023-02-28T09:11:27;8.18;;;4.00;;
69246;SDS011;56358;56.328;43.992;2023-02-28T09:13:28;5.97;;;2.92;;
69246;SDS011;56358;56.328;43.992;2023-02-28T09:15:30;7.13;;;3.60;;
69246;SDS011;56358;56.328;43.992;2023-02-28T09:17:30;12.95;;;4.18;;
69246;SDS011;56358;56.328;43.992;2023-02-28T09:19:31;7.15;;;3.72;;
69246;SDS011;56358;56.328;43.992;2023-02-28T09:21:32;7.03;;;3.10;;
69246;SDS011;56358;56.328;43.992;2023-02-28T09:23:33;9.00;;;3.53;;
69246;SDS011;56358;56.328;43.992;2023-02-28T09:25:34;8.43;;;4.32;;
69246;SDS011;56358;56.328;43.992;2023-02-28T09:27:35;7.07;;;2.80;;
69246;SDS011;56358;56.328;43.992;2023-02-28T10:22:15;6.15;;;2.97;;
69246;SDS011;56358;56.328;43.992;2023-02-28T10:24:32;10.15;;;4.60;;
69246;SDS011;56358;56.328;43.992;2023-02-28T10:26:42;10.77;;;3.97;;
69246;SDS011;56358;56.328;43.992;2023-02-28T10:28:44;8.18;;;3.50;;
69246;SDS011;56358;56.328;43.992;2023-02-28T10:30:54;15.05;;;5.32;;
69246;SDS011;56358;56.328;43.992;2023-02-28T10:33:13;10.95;;;3.95;;
69246;SDS011;56358;56.328;43.992;2023-02-28T10:35:28;7.18;;;3.42;;
69246;SDS011;56358;56.328;43.992;2023-02-28T10:42:26;10.15;;;3.33;;
69246;SDS011;56358;56.328;43.992;2023-02-28T10:44:31;8.25;;;3.22;;
69246;SDS011;56358;56.328;43.992;2023-02-28T10:46:32;9.00;;;3.47;;
69246;SDS011;56358;56.328;43.992;2023-02-28T10:48:36;10.40;;;3.72;;
69246;SDS011;56358;56.328;43.992;2023-02-28T10:50:50;6.57;;;3.65;;
69246;SDS011;56358;56.328;43.992;2023-02-28T10:52:54;10.35;;;3.47;;
69246;SDS011;56358;56.328;43.992;2023-02-28T10:55:19;9.40;;;3.92;;
69246;SDS011;56358;56.328;43.992;2023-02-28T10:57:26;9.95;;;3.83;;
69246;SDS011;56358;56.328;43.992;2023-02-28T10:59:33;9.55;;;4.07;;
69246;SDS011;56358;56.328;43.992;2023-02-28T11:01:44;11.20;;;4.18;;
69246;SDS011;56358;56.328;43.992;2023-02-28T11:14:30;7.88;;;3.78;;
69246;SDS011;56358;56.328;43.992;2023-02-28T11:16:36;9.65;;;4.65;;
69246;SDS011;56358;56.328;43.992;2023-02-28T11:18:40;9.20;;;4.05;;
69246;SDS011;56358;56.328;43.992;2023-02-28T11:20:52;10.77;;;4.45;;
69246;SDS011;56358;56.328;43.992;2023-02-28T11:22:56;12.30;;;5.03;;
69246;SDS011;56358;56.328;43.992;2023-02-28T11:24:59;6.57;;;3.17;;
69246;SDS011;56358;56.328;43.992;2023-02-28T11:27:03;11.35;;;4.43;;
69246;SDS011;56358;56.328;43.992;2023-02-28T11:29:12;10.75;;;4.13;;
69246;SDS011;56358;56.328;43.992;2023-02-28T11:31:19;10.60;;;4.03;;
69246;SDS011;56358;56.328;43.992;2023-02-28T11:35:33;5.38;;;3.05;;
69246;SDS011;56358;56.328;43.992;2023-02-28T11:37:38;9.52;;;4.13;;
69246;SDS011;56358;56.328;43.992;2023-02-28T11:39:41;8.32;;;2.65;;
69246;SDS011;56358;56.328;43.992;2023-02-28T11:48:22;10.82;;;4.07;;
69246;SDS011;56358;56.328;43.992;2023-02-28T11:56:57;11.60;;;4.03;;
69246;SDS011;56358;56.328;43.992;2023-02-28T12:05:44;8.60;;;3.28;;
69246;SDS011;56358;56.328;43.992;2023-02-28T12:17:09;8.43;;;3.35;;
69246;SDS011;56358;56.328;43.992;2023-02-28T12:21:45;12.30;;;4.97;;
69246;SDS011;56358;56.328;43.992;2023-02-28T12:28:18;10.32;;;4.32;;
69246;SDS011;56358;56.328;43.992;2023-02-28T12:30:33;9.43;;;4.13;;
69246;SDS011;56358;56.328;43.992;2023-02-28T12:32:40;9.30;;;4.57;;
69246;SDS011;56358;56.328;43.992;2023-02-28T12:34:47;9.55;;;3.85;;
69246;SDS011;56358;56.328;43.992;2023-02-28T12:36:52;8.57;;;3.40;;
69246;SDS011;56358;56.328;43.992;2023-02-28T12:38:59;8.18;;;3.63;;
69246;SDS011;56358;56.328;43.992;2023-02-28T12:41:29;8.80;;;4.28;;
69246;SDS011;56358;56.328;43.992;2023-02-28T12:43:44;8.55;;;3.67;;
69246;SDS011;56358;56.328;43.992;2023-02-28T12:45:52;11.30;;;3.97;;
69246;SDS011;56358;56.328;43.992;2023-02-28T12:48:02;10.82;;;3.95;;
69246;SDS011;56358;56.328;43.992;2023-02-28T12:50:07;11.30;;;4.07;;
69246;SDS011;56358;56.328;43.992;2023-02-28T12:52:11;12.00;;;3.92;;
69246;SDS011;56358;56.328;43.992;2023-02-28T12:56:34;7.72;;;3.38;;
69246;SDS011;56358;56.328;43.992;2023-02-28T12:58:43;10.35;;;4.85;;
69246;SDS011;56358;56.328;43.992;2023-02-28T13:03:13;9.02;;;4.60;;
69246;SDS011;56358;56.328;43.992;2023-02-28T13:08:20;6.72;;;3.70;;
69246;SDS011;56358;56.328;43.992;2023-02-28T13:10:12;7.43;;;3.65;;
69246;SDS011;56358;56.328;43.992;2023-02-28T13:12:16;11.10;;;3.60;;
69246;SDS011;56358;56.328;43.992;2023-02-28T13:14:22;9.35;;;4.22;;
69246;SDS011;56358;56.328;43.992;2023-02-28T13:16:26;8.15;;;3.17;;
69246;SDS011;56358;56.328;43.992;2023-02-28T13:20:46;8.57;;;3.45;;
69246;SDS011;56358;56.328;43.992;2023-02-28T13:22:49;10.65;;;3.67;;
69246;SDS011;56358;56.328;43.992;2023-02-28T13:24:52;8.15;;;3.65;;
69246;SDS011;56358;56.328;43.992;2023-02-28T13:29:01;8.55;;;3.75;;
69246;SDS011;56358;56.328;43.992;2023-02-28T13:31:20;10.88;;;4.88;;
69246;SDS011;56358;56.328;43.992;2023-02-28T13:35:35;6.18;;;3.10;;
69246;SDS011;56358;56.328;43.992;2023-02-28T13:39:46;7.80;;;3.35;;
69246;SDS011;56358;56.328;43.992;2023-02-28T13:41:47;10.85;;;4.32;;
69246;SDS011;56358;56.328;43.992;2023-02-28T13:44:07;10.32;;;4.25;;
69246;SDS011;56358;56.328;43.992;2023-02-28T13:46:13;9.32;;;4.05;;
69246;SDS011;56358;56.328;43.992;2023-02-28T13:48:20;8.98;;;4.10;;
69246;SDS011;56358;56.328;43.992;2023-02-28T13:50:27;11.90;;;5.07;;
69246;SDS011;56358;56.328;43.992;2023-02-28T13:52:33;9.07;;;4.45;;
69246;SDS011;56358;56.328;43.992;2023-02-28T13:55:10;11.68;;;4.13;;
69246;SDS011;56358;56.328;43.992;2023-02-28T13:59:50;11.40;;;4.38;;
69246;SDS011;56358;56.328;43.992;2023-02-28T14:06:36;9.75;;;4.72;;
69246;SDS011;56358;56.328;43.992;2023-02-28T14:08:28;9.20;;;4.47;;
69246;SDS011;56358;56.328;43.992;2023-02-28T14:10:29;8.98;;;4.35;;
69246;SDS011;56358;56.328;43.992;2023-02-28T14:16:52;13.75;;;5.68;;
69246;SDS011;56358;56.328;43.992;2023-02-28T14:19:00;12.88;;;4.60;;
69246;SDS011;56358;56.328;43.992;2023-02-28T14:21:11;11.05;;;4.22;;
69246;SDS011;56358;56.328;43.992;2023-02-28T14:23:19;10.10;;;4.72;;
69246;SDS011;56358;56.328;43.992;2023-02-28T14:31:54;9.30;;;4.65;;
69246;SDS011;56358;56.328;43.992;2023-02-28T14:36:21;9.88;;;4.35;;
69246;SDS011;56358;56.328;43.992;2023-02-28T14:38:30;11.00;;;4.90;;
69246;SDS011;56358;56.328;43.992;2023-02-28T14:40:35;10.07;;;4.13;;
69246;SDS011;56358;56.328;43.992;2023-02-28T14:44:41;9.65;;;4.18;;
69246;SDS011;56358;56.328;43.992;2023-02-28T14:46:42;10.80;;;4.55;;
69246;SDS011;56358;56.328;43.992;2023-02-28T14:48:47;8.73;;;4.30;;
69246;SDS011;56358;56.328;43.992;2023-02-28T14:50:51;8.77;;;3.00;;
69246;SDS011;56358;56.328;43.992;2023-02-28T14:52:53;9.55;;;4.85;;
69246;SDS011;56358;56.328;43.992;2023-02-28T14:55:01;12.15;;;5.50;;
69246;SDS011;56358;56.328;43.992;2023-02-28T14:57:06;9.50;;;4.90;;
69246;SDS011;56358;56.328;43.992;2023-02-28T15:01:28;14.95;;;5.38;;
69246;SDS011;56358;56.328;43.992;2023-02-28T15:05:32;9.98;;;5.03;;
69246;SDS011;56358;56.328;43.992;2023-02-28T15:07:34;12.27;;;5.35;;
69246;SDS011;56358;56.328;43.992;2023-02-28T15:09:34;10.75;;;4.90;;
69246;SDS011;56358;56.328;43.992;2023-02-28T15:11:35;19.00;;;5.30;;
69246;SDS011;56358;56.328;43.992;2023-02-28T15:17:44;16.33;;;4.85;;
69246;SDS011;56358;56.328;43.992;2023-02-28T15:19:50;14.20;;;4.50;;
69246;SDS011;56358;56.328;43.992;2023-02-28T15:21:57;11.80;;;5.10;;
69246;SDS011;56358;56.328;43.992;2023-02-28T15:24:17;15.68;;;7.10;;
69246;SDS011;56358;56.328;43.992;2023-02-28T15:26:25;12.07;;;4.50;;
69246;SDS011;56358;56.328;43.992;2023-02-28T15:28:29;17.30;;;5.25;;
69246;SDS011;56358;56.328;43.992;2023-02-28T15:30:30;16.85;;;4.97;;
69246;SDS011;56358;56.328;43.992;2023-02-28T15:32:33;15.02;;;5.53;;
69246;SDS011;56358;56.328;43.992;2023-02-28T15:36:37;15.05;;;5.82;;